Terminal Aerodrome Forecast
Issued by NWS Sterling, VA

Current Version | Previous Version | Graphics & Text | Print | Product List | Glossary On
Versions: 1 2 3 4 5 6 7 8 9 10 11 12 13 14 15 16 17 18 19 20 21 22 23 24 25 26
671
FTUS41 KLWX 211555 AAB
TAFIAD
TAF AMD
KIAD 211555Z 2116/2218 21012G22KT P6SM FEW035 SCT200
     FM212300 22009KT P6SM SCT035 BKN110
     FM220200 26005KT P6SM SCT025 OVC090
     FM220400 32005KT P6SM SCT025 OVC060
     FM220600 01008KT 5SM -DZ BR SCT025 OVC030
     FM221500 03007KT 1 1/2SM -RADZ BR BKN008 OVC030=

USA.gov is the U.S. government's official web portal to all federal, state and local government web resources and services.